Time;durP1;ratioP1;P1;durP2;ratioP2;P2;SDS_P1;SDS_P2;PMS_P1;PMS_P2;Temp;Humidity;BMP_temperature;BMP_pressure;BME280_temperature;BME280_humidity;BME280_pressure;Samples;Min_cycle;Max_cycle;Signal;HPM_P1;HPM_P2
2023/04/28 00:02:06;;;;;;;13.20;10.52;;;19.00;59.10;;;;;;6181336;23;20475;-75
2023/04/28 00:04:32;;;;;;;14.65;9.88;;;18.90;59.10;;;;;;6181433;23;20017;-75
2023/04/28 00:06:58;;;;;;;12.77;10.70;;;19.00;59.10;;;;;;6181796;23;20009;-75
2023/04/28 00:09:24;;;;;;;11.68;9.93;;;18.90;59.20;;;;;;6157297;23;20031;-74
2023/04/28 00:11:50;;;;;;;13.27;10.70;;;18.90;59.30;;;;;;6197261;23;20031;-74
2023/04/28 00:14:16;;;;;;;15.88;11.13;;;18.90;59.50;;;;;;6210749;23;20096;-75
2023/04/28 00:16:41;;;;;;;16.42;11.07;;;18.90;59.40;;;;;;6179601;23;20024;-76
2023/04/28 00:19:07;;;;;;;16.83;10.85;;;18.90;59.60;;;;;;6182994;23;20550;-75
2023/04/28 00:21:33;;;;;;;13.55;10.93;;;18.80;59.70;;;;;;6181906;23;20029;-75
2023/04/28 00:23:59;;;;;;;13.63;10.15;;;18.80;59.70;;;;;;6180651;23;20017;-75
2023/04/28 00:26:25;;;;;;;17.50;10.85;;;18.80;59.90;;;;;;6179522;23;20024;-76
2023/04/28 00:28:51;;;;;;;16.05;10.55;;;18.80;59.80;;;;;;6180751;23;20100;-75
2023/04/28 00:31:17;;;;;;;12.82;9.93;;;18.80;59.80;;;;;;6181868;23;20470;-75
2023/04/28 00:33:43;;;;;;;22.98;10.65;;;18.70;60.00;;;;;;6184232;23;20325;-75
2023/04/28 00:36:10;;;;;;;14.90;10.50;;;18.70;60.00;;;;;;6206425;23;20024;-76
2023/04/28 00:38:36;;;;;;;11.90;9.70;;;18.70;60.00;;;;;;6204327;23;20024;-76
2023/04/28 00:41:03;;;;;;;16.30;9.82;;;18.70;60.00;;;;;;6180518;23;20016;-75
2023/04/28 00:43:29;;;;;;;14.48;9.88;;;18.60;60.00;;;;;;6204273;23;20071;-75
2023/04/28 00:45:55;;;;;;;11.77;9.65;;;18.60;59.90;;;;;;6181825;23;20444;-76
2023/04/28 00:48:22;;;;;;;14.10;9.88;;;18.60;60.10;;;;;;6181257;23;20068;-76
2023/04/28 00:50:49;;;;;;;12.90;10.13;;;18.60;60.10;;;;;;6204594;23;20579;-76
2023/04/28 00:53:15;;;;;;;11.90;8.90;;;18.60;60.10;;;;;;6171729;23;20021;-75
2023/04/28 00:55:41;;;;;;;11.95;9.18;;;18.60;60.10;;;;;;6151371;23;20013;-75
2023/04/28 00:58:08;;;;;;;15.43;9.60;;;18.60;60.00;;;;;;6205331;23;20009;-76
2023/04/28 01:00:34;;;;;;;12.45;9.48;;;18.50;60.10;;;;;;6180804;23;20044;-75
2023/04/28 01:03:00;;;;;;;14.43;10.00;;;18.50;60.20;;;;;;6204517;23;20091;-76
2023/04/28 01:05:30;;;;;;;14.93;9.68;;;18.50;60.30;;;;;;6179325;23;20017;-75
2023/04/28 01:07:56;;;;;;;11.90;10.13;;;18.50;60.30;;;;;;6180525;23;20452;-75
2023/04/28 01:10:22;;;;;;;14.75;9.82;;;18.40;61.00;;;;;;6204319;23;20016;-76
2023/04/28 01:12:48;;;;;;;16.15;9.70;;;18.40;60.50;;;;;;6179980;23;20009;-76
2023/04/28 01:15:19;;;;;;;11.77;9.95;;;18.40;60.50;;;;;;6204225;23;20021;-76
2023/04/28 01:17:47;;;;;;;11.90;10.30;;;18.40;60.60;;;;;;6179181;23;20024;-76
2023/04/28 01:20:14;;;;;;;13.60;10.50;;;18.40;60.60;;;;;;6204219;23;20016;-75
2023/04/28 01:22:40;;;;;;;15.43;10.27;;;18.40;60.60;;;;;;6179011;23;20021;-75
2023/04/28 01:25:07;;;;;;;11.88;9.82;;;18.30;60.70;;;;;;6202689;23;20020;-75
2023/04/28 01:27:33;;;;;;;12.75;10.38;;;18.30;60.70;;;;;;6178686;23;20132;-76
2023/04/28 01:30:00;;;;;;;17.60;10.50;;;18.30;60.80;;;;;;6204199;23;20476;-76
2023/04/28 01:32:26;;;;;;;13.05;10.25;;;18.30;60.90;;;;;;6180773;23;20028;-75
2023/04/28 01:34:52;;;;;;;13.23;9.85;;;18.30;60.90;;;;;;6181057;23;20530;-75
2023/04/28 01:37:18;;;;;;;14.68;10.45;;;18.30;61.00;;;;;;6179184;23;20334;-75
2023/04/28 01:39:44;;;;;;;14.23;9.93;;;18.20;61.00;;;;;;6179479;23;20059;-75
2023/04/28 01:42:10;;;;;;;14.15;9.88;;;18.20;61.00;;;;;;6178122;23;20029;-74
2023/04/28 01:44:35;;;;;;;16.45;9.93;;;18.20;60.90;;;;;;6180209;23;20056;-77
2023/04/28 01:47:01;;;;;;;11.95;9.30;;;18.20;61.00;;;;;;6178687;23;20027;-74
2023/04/28 01:49:27;;;;;;;14.30;9.73;;;18.20;61.10;;;;;;6178780;23;20084;-74
2023/04/28 01:51:53;;;;;;;12.18;8.95;;;18.20;61.00;;;;;;6204424;23;20472;-73
2023/04/28 01:54:19;;;;;;;12.38;8.60;;;18.20;61.00;;;;;;6178881;23;20025;-75
2023/04/28 01:56:45;;;;;;;9.73;8.18;;;18.10;60.90;;;;;;6174291;23;20049;-75
2023/04/28 01:59:15;;;;;;;10.82;8.65;;;18.10;61.00;;;;;;6178366;23;20364;-74
2023/04/28 02:01:40;;;;;;;9.60;8.45;;;18.10;61.00;;;;;;6178624;23;20464;-74
2023/04/28 02:04:06;;;;;;;14.15;8.23;;;18.10;61.10;;;;;;6154245;23;20012;-74
2023/04/28 02:06:35;;;;;;;13.23;9.15;;;18.20;61.30;;;;;;6203064;23;20425;-75
2023/04/28 02:09:01;;;;;;;12.65;9.15;;;18.20;61.40;;;;;;6203225;23;20017;-74
2023/04/28 02:11:27;;;;;;;11.30;8.82;;;18.10;61.30;;;;;;6203692;23;20363;-75
2023/04/28 02:13:55;;;;;;;12.25;9.13;;;18.10;61.20;;;;;;6175902;23;20151;-75
2023/04/28 02:16:21;;;;;;;14.90;9.55;;;18.10;61.40;;;;;;6176635;23;20045;-75
2023/04/28 02:18:49;;;;;;;10.68;9.57;;;18.10;61.50;;;;;;6178758;23;20063;-75
2023/04/28 02:21:15;;;;;;;14.48;9.40;;;18.00;61.60;;;;;;6203177;23;20107;-75
2023/04/28 02:23:44;;;;;;;14.93;10.43;;;18.00;61.70;;;;;;6178596;23;20461;-75
2023/04/28 02:26:10;;;;;;;12.15;8.88;;;18.00;61.70;;;;;;6178160;23;20586;-75
2023/04/28 02:28:36;;;;;;;12.68;9.10;;;18.00;61.80;;;;;;6203201;23;20017;-75
2023/04/28 02:31:09;;;;;;;12.02;9.10;;;18.00;61.80;;;;;;6180528;23;20017;-76
2023/04/28 02:33:36;;;;;;;14.20;10.00;;;18.00;62.00;;;;;;6178408;23;20021;-76
2023/04/28 02:36:03;;;;;;;14.98;9.40;;;18.00;62.10;;;;;;6178419;23;20027;-75
2023/04/28 02:38:29;;;;;;;11.55;9.82;;;18.00;62.00;;;;;;6180284;23;20017;-76
2023/04/28 02:41:00;;;;;;;14.15;9.70;;;18.00;62.10;;;;;;6180471;23;20025;-76
2023/04/28 02:43:27;;;;;;;12.90;9.02;;;18.00;62.20;;;;;;6177174;23;20515;-77
2023/04/28 02:45:53;;;;;;;15.85;9.95;;;18.00;62.20;;;;;;6180227;23;20091;-76
2023/04/28 02:48:20;;;;;;;12.35;9.23;;;18.00;62.30;;;;;;6180018;23;20024;-76
2023/04/28 02:50:46;;;;;;;16.33;9.88;;;18.00;62.40;;;;;;6181943;23;20071;-76
2023/04/28 02:53:12;;;;;;;14.35;9.50;;;18.00;62.40;;;;;;6205327;23;20488;-76
2023/04/28 02:55:38;;;;;;;13.93;9.10;;;18.00;62.30;;;;;;6180379;23;20016;-76
2023/04/28 02:58:04;;;;;;;14.88;8.70;;;18.00;62.50;;;;;;6206045;23;20074;-76
2023/04/28 03:00:30;;;;;;;14.82;9.18;;;18.00;62.40;;;;;;6205046;23;20057;-76
2023/04/28 03:02:56;;;;;;;11.43;8.70;;;18.00;62.40;;;;;;6154965;23;20525;-75
2023/04/28 03:05:22;;;;;;;16.25;9.45;;;18.00;62.50;;;;;;6181440;23;20013;-76
2023/04/28 03:07:48;;;;;;;11.73;9.25;;;18.00;62.60;;;;;;6179974;23;20099;-76
2023/04/28 03:10:15;;;;;;;13.23;9.30;;;18.00;62.50;;;;;;6181074;23;20095;-77
2023/04/28 03:12:41;;;;;;;11.07;8.73;;;18.00;62.50;;;;;;6180181;23;20043;-76
2023/04/28 03:15:07;;;;;;;9.90;8.30;;;18.00;62.50;;;;;;6138908;23;20038;-76
2023/04/28 03:17:37;;;;;;;12.77;8.75;;;18.00;62.60;;;;;;6174460;23;20017;-76
2023/04/28 03:20:04;;;;;;;10.93;9.07;;;18.00;62.70;;;;;;6151755;23;20021;-76
2023/04/28 03:22:30;;;;;;;10.38;9.23;;;18.00;62.70;;;;;;6149844;23;20021;-76
2023/04/28 03:24:57;;;;;;;12.85;8.63;;;18.00;62.70;;;;;;6150378;23;20010;-75
2023/04/28 03:27:25;;;;;;;13.02;8.88;;;18.00;62.60;;;;;;6149875;23;20408;-76
2023/04/28 03:29:53;;;;;;;10.57;8.73;;;18.00;62.70;;;;;;6174318;23;20014;-75
2023/04/28 03:32:19;;;;;;;13.23;9.30;;;18.00;62.70;;;;;;6149665;23;20068;-76
2023/04/28 03:34:45;;;;;;;14.48;9.18;;;18.00;62.90;;;;;;6151443;23;20018;-75
2023/04/28 03:37:11;;;;;;;12.95;8.80;;;17.90;62.90;;;;;;6149681;23;20009;-77
2023/04/28 03:39:37;;;;;;;13.25;9.25;;;18.00;62.90;;;;;;6173998;23;20023;-75
2023/04/28 03:42:03;;;;;;;15.18;9.13;;;18.00;63.00;;;;;;6149085;23;20022;-75
2023/04/28 03:44:58;;;;;;;11.63;8.73;;;17.90;63.00;;;;;;6117627;23;20018;-75
2023/04/28 03:47:24;;;;;;;10.73;8.30;;;18.00;63.10;;;;;;6149575;23;20071;-74
2023/04/28 03:49:51;;;;;;;12.15;8.38;;;18.00;63.10;;;;;;6173615;23;20021;-75
2023/04/28 03:52:17;;;;;;;13.05;8.18;;;18.00;63.10;;;;;;6148837;23;20018;-76
2023/04/28 03:54:43;;;;;;;13.15;7.90;;;18.00;63.00;;;;;;6174797;23;20014;-76
2023/04/28 03:57:09;;;;;;;12.77;7.57;;;18.00;63.00;;;;;;6125350;23;20029;-76
2023/04/28 03:59:35;;;;;;;11.07;8.38;;;18.10;62.90;;;;;;6149026;23;20456;-77
2023/04/28 04:02:01;;;;;;;11.13;7.97;;;18.10;62.90;;;;;;6149394;23;20437;-77
2023/04/28 04:04:27;;;;;;;9.98;7.57;;;18.10;62.90;;;;;;6124851;23;20014;-75
2023/04/28 04:06:55;;;;;;;11.30;8.32;;;18.10;62.90;;;;;;6149357;23;20009;-73
2023/04/28 04:09:21;;;;;;;12.32;7.75;;;18.10;62.90;;;;;;6173869;23;20029;-73
2023/04/28 04:11:47;;;;;;;8.82;7.60;;;18.20;62.80;;;;;;6173686;23;20041;-72
2023/04/28 04:14:13;;;;;;;9.60;7.32;;;18.20;62.70;;;;;;6174762;23;20018;-72
2023/04/28 04:16:40;;;;;;;12.00;8.25;;;18.20;62.70;;;;;;6180815;23;20020;-72
2023/04/28 04:19:06;;;;;;;12.73;8.55;;;18.20;62.80;;;;;;6184262;23;20459;-71
2023/04/28 04:21:39;;;;;;;14.40;7.95;;;18.30;62.70;;;;;;6183418;23;20021;-71
2023/04/28 04:24:06;;;;;;;12.15;8.77;;;18.30;62.60;;;;;;6183821;23;20012;-71
2023/04/28 04:26:32;;;;;;;11.45;8.50;;;18.30;62.50;;;;;;6158688;23;20023;-71
2023/04/28 04:28:59;;;;;;;13.75;8.93;;;18.30;62.40;;;;;;6183672;23;20059;-71
2023/04/28 04:31:25;;;;;;;11.32;8.20;;;18.40;62.60;;;;;;6210408;23;20036;-73
2023/04/28 04:33:51;;;;;;;15.25;8.38;;;18.40;62.40;;;;;;6184688;23;20489;-73
2023/04/28 04:36:19;;;;;;;11.98;8.55;;;18.40;62.40;;;;;;6208392;23;20028;-73
2023/04/28 04:38:45;;;;;;;12.88;8.15;;;18.30;62.60;;;;;;6183692;23;20411;-76
2023/04/28 04:41:15;;;;;;;10.88;8.05;;;18.40;63.00;;;;;;6182843;23;20016;-75
2023/04/28 04:43:41;;;;;;;13.00;8.18;;;18.30;63.30;;;;;;6182877;23;20039;-74
2023/04/28 04:46:07;;;;;;;12.20;7.93;;;18.30;63.80;;;;;;6208302;23;20009;-76
2023/04/28 04:48:34;;;;;;;12.63;9.23;;;18.40;64.10;;;;;;6182209;23;20021;-75
2023/04/28 04:51:00;;;;;;;11.52;8.55;;;18.40;64.30;;;;;;6209590;23;20216;-73
2023/04/28 04:53:26;;;;;;;13.38;8.45;;;18.40;64.70;;;;;;6180976;23;20026;-74
2023/04/28 04:55:54;;;;;;;13.75;8.93;;;18.50;65.20;;;;;;6206234;23;20016;-74
2023/04/28 04:58:20;;;;;;;12.77;8.88;;;18.50;65.50;;;;;;6181926;23;20016;-75
2023/04/28 05:01:07;;;;;;;12.35;8.13;;;18.50;65.40;;;;;;6088279;23;20485;-76
2023/04/28 05:03:33;;;;;;;12.05;8.32;;;18.60;64.80;;;;;;6086399;23;20024;-74
2023/04/28 05:06:00;;;;;;;13.18;8.63;;;18.60;64.70;;;;;;6086364;23;20046;-75
2023/04/28 05:08:36;;;;;;;13.15;9.30;;;18.60;65.00;;;;;;6110983;23;20018;-74
2023/04/28 05:11:03;;;;;;;14.00;8.45;;;18.60;64.90;;;;;;6086148;23;20025;-74
2023/04/28 05:13:29;;;;;;;11.75;8.27;;;18.60;64.70;;;;;;6061775;23;20049;-74
2023/04/28 05:16:00;;;;;;;11.73;8.07;;;18.70;64.70;;;;;;6111477;23;20022;-74
2023/04/28 05:19:01;;;;;;;12.32;7.63;;;18.70;64.60;;;;;;6076036;23;20038;-74
2023/04/28 05:21:27;;;;;;;11.60;7.78;;;18.70;64.60;;;;;;6036126;23;20026;-73
2023/04/28 05:23:53;;;;;;;10.85;7.10;;;18.70;64.70;;;;;;6082239;23;20415;-73
2023/04/28 05:26:19;;;;;;;11.20;6.78;;;18.70;64.40;;;;;;6057391;23;20094;-73
2023/04/28 05:28:45;;;;;;;11.07;6.50;;;18.70;64.50;;;;;;6079998;23;20014;-74
2023/04/28 05:31:11;;;;;;;10.85;6.85;;;18.70;64.40;;;;;;6034628;23;20135;-72
2023/04/28 05:33:38;;;;;;;9.90;6.13;;;18.70;64.30;;;;;;6058342;23;20022;-75
2023/04/28 05:36:04;;;;;;;9.70;6.47;;;18.70;64.50;;;;;;6058086;23;20023;-75
2023/04/28 05:38:32;;;;;;;8.27;6.63;;;18.70;64.50;;;;;;6129558;23;20029;-77
2023/04/28 05:40:58;;;;;;;9.55;6.25;;;18.70;64.70;;;;;;6132236;23;20539;-77
2023/04/28 05:43:24;;;;;;;8.30;6.30;;;18.70;64.70;;;;;;6176966;23;20008;-77
2023/04/28 05:45:51;;;;;;;10.45;6.72;;;18.70;64.90;;;;;;6177662;23;20460;-78
2023/04/28 05:48:18;;;;;;;8.55;6.47;;;18.70;65.10;;;;;;6147947;23;20068;-74
2023/04/28 05:50:44;;;;;;;10.63;6.55;;;18.80;65.40;;;;;;6163134;23;20021;-75
2023/04/28 05:53:11;;;;;;;8.00;6.22;;;18.70;65.40;;;;;;6152241;23;20314;-75
2023/04/28 05:55:37;;;;;;;8.18;6.35;;;18.80;65.40;;;;;;6151746;23;20338;-77
2023/04/28 05:58:03;;;;;;;11.13;6.50;;;18.80;65.50;;;;;;6202678;23;20036;-78
2023/04/28 06:00:30;;;;;;;11.10;5.78;;;18.80;67.30;;;;;;6151272;23;20017;-76
2023/04/28 06:02:59;;;;;;;10.27;6.65;;;18.90;66.90;;;;;;6119889;23;20021;-75
2023/04/28 06:05:25;;;;;;;10.48;7.18;;;18.90;66.90;;;;;;6166879;23;20372;-76
2023/04/28 06:07:54;;;;;;;10.00;6.60;;;18.90;66.00;;;;;;6176521;23;20108;-76
2023/04/28 06:10:25;;;;;;;9.48;6.25;;;19.00;66.10;;;;;;6150279;23;20306;-75
2023/04/28 06:12:50;;;;;;;7.45;5.47;;;19.00;65.60;;;;;;6180232;23;20009;-76
2023/04/28 06:15:17;;;;;;;15.63;9.35;;;19.10;65.80;;;;;;6174014;23;20024;-76
2023/04/28 06:17:43;;;;;;;11.13;7.78;;;19.20;65.50;;;;;;6178464;23;20025;-76
2023/04/28 06:20:11;;;;;;;11.38;6.95;;;19.30;65.50;;;;;;6203418;23;20321;-76
2023/04/28 06:22:37;;;;;;;12.05;6.85;;;19.30;65.10;;;;;;6177248;23;20545;-76
2023/04/28 06:25:03;;;;;;;8.40;6.47;;;19.30;65.00;;;;;;6204406;23;20045;-76
2023/04/28 06:27:38;;;;;;;12.13;6.22;;;19.30;65.00;;;;;;6178979;23;20374;-76
2023/04/28 06:30:04;;;;;;;13.70;6.57;;;19.30;65.10;;;;;;6181384;23;20025;-76
2023/04/28 06:32:32;;;;;;;8.65;6.32;;;19.40;65.40;;;;;;6182014;23;20024;-76
2023/04/28 06:34:58;;;;;;;9.65;6.43;;;19.50;65.60;;;;;;6205608;23;20104;-76
2023/04/28 06:37:26;;;;;;;8.20;6.30;;;19.60;65.80;;;;;;6181776;23;20012;-75
2023/04/28 06:39:51;;;;;;;8.50;6.53;;;19.70;65.50;;;;;;6207439;23;20399;-75
2023/04/28 06:42:19;;;;;;;8.70;5.50;;;19.70;65.20;;;;;;6205928;23;20021;-76
2023/04/28 06:44:52;;;;;;;10.75;6.78;;;19.80;64.90;;;;;;6205972;23;20016;-76
2023/04/28 06:47:19;;;;;;;10.88;6.43;;;19.80;64.80;;;;;;6181227;23;20479;-75
2023/04/28 06:49:48;;;;;;;7.93;5.47;;;19.80;64.70;;;;;;6206453;23;20342;-77
2023/04/28 06:52:15;;;;;;;10.68;6.35;;;19.90;64.90;;;;;;6180192;23;20341;-78
2023/04/28 06:54:41;;;;;;;10.63;5.60;;;19.90;64.50;;;;;;6184119;23;20103;-79
2023/04/28 06:57:07;;;;;;;9.00;5.85;;;19.90;64.40;;;;;;6179986;23;20021;-79
2023/04/28 06:59:33;;;;;;;12.13;6.63;;;19.90;64.10;;;;;;6179754;23;20021;-79
2023/04/28 07:02:00;;;;;;;10.75;6.82;;;19.90;64.20;;;;;;6180095;23;20103;-79
2023/04/28 07:04:26;;;;;;;9.65;5.97;;;19.90;64.50;;;;;;6203608;23;20013;-78
2023/04/28 07:06:52;;;;;;;7.95;5.43;;;19.90;64.40;;;;;;6180207;23;20443;-78
2023/04/28 07:09:18;;;;;;;7.57;5.00;;;19.90;64.60;;;;;;6178378;23;20025;-78
2023/04/28 07:11:44;;;;;;;7.50;4.57;;;19.90;64.80;;;;;;6203281;23;20021;-79
2023/04/28 07:14:10;;;;;;;5.78;4.45;;;19.90;65.00;;;;;;6203650;23;20017;-79
2023/04/28 07:16:36;;;;;;;6.38;4.25;;;19.90;65.50;;;;;;6210251;23;20013;-78
2023/04/28 07:19:02;;;;;;;7.03;4.20;;;19.90;65.60;;;;;;6158957;23;20016;-79
2023/04/28 07:21:28;;;;;;;4.50;3.85;;;19.90;65.70;;;;;;6209580;23;20192;-79
2023/04/28 07:23:57;;;;;;;5.35;4.07;;;19.90;65.70;;;;;;6182106;23;20103;-79
2023/04/28 07:26:23;;;;;;;6.13;4.60;;;19.90;65.80;;;;;;6182969;23;20095;-79
2023/04/28 07:28:50;;;;;;;6.43;4.80;;;19.90;65.80;;;;;;6209670;23;20407;-79
2023/04/28 07:31:16;;;;;;;5.88;4.63;;;19.90;66.00;;;;;;6209503;23;20067;-78
2023/04/28 07:33:42;;;;;;;5.68;3.92;;;19.80;65.60;;;;;;6210580;23;20009;-79
2023/04/28 07:36:08;;;;;;;5.32;4.07;;;19.80;65.70;;;;;;6209231;23;20571;-79
2023/04/28 07:38:35;;;;;;;5.55;4.15;;;19.80;66.00;;;;;;6209511;23;20036;-78
2023/04/28 07:41:02;;;;;;;4.50;4.10;;;19.80;66.50;;;;;;6178028;23;20032;-79
2023/04/28 07:43:29;;;;;;;6.50;3.85;;;19.70;66.70;;;;;;6179661;23;20009;-78
2023/04/28 07:45:55;;;;;;;5.55;4.32;;;19.80;66.90;;;;;;6179678;23;20013;-77
2023/04/28 07:48:21;;;;;;;5.50;4.13;;;19.80;66.90;;;;;;6177895;23;20108;-77
2023/04/28 07:50:47;;;;;;;6.47;4.20;;;19.70;66.90;;;;;;6152976;23;20024;-78
2023/04/28 07:53:13;;;;;;;6.82;4.40;;;19.70;67.10;;;;;;6177985;23;20013;-77
2023/04/28 07:55:40;;;;;;;5.95;4.53;;;19.70;67.20;;;;;;6178339;23;20013;-80
2023/04/28 07:58:07;;;;;;;5.32;4.82;;;19.70;67.30;;;;;;6153798;23;20337;-79
2023/04/28 08:00:33;;;;;;;6.57;4.60;;;19.70;67.20;;;;;;6178136;23;20028;-79
2023/04/28 08:02:59;;;;;;;5.85;4.97;;;19.70;67.40;;;;;;6177787;23;20021;-79
2023/04/28 08:05:25;;;;;;;6.75;4.90;;;19.70;67.60;;;;;;6153411;23;20024;-76
2023/04/28 08:07:51;;;;;;;5.80;5.20;;;19.70;67.50;;;;;;6177798;23;20021;-79
2023/04/28 08:10:17;;;;;;;7.22;4.93;;;19.80;67.50;;;;;;6177536;23;20008;-79
2023/04/28 08:12:44;;;;;;;6.80;5.20;;;19.80;66.90;;;;;;6179876;23;20005;-78
2023/04/28 08:15:11;;;;;;;6.53;5.38;;;19.80;66.90;;;;;;6179372;23;20032;-76
2023/04/28 08:17:37;;;;;;;6.25;5.28;;;19.80;67.00;;;;;;6178344;23;20361;-76
2023/04/28 08:20:04;;;;;;;7.20;4.90;;;19.80;67.00;;;;;;6179375;23;20009;-76
2023/04/28 08:22:30;;;;;;;5.72;4.43;;;19.80;67.70;;;;;;6179030;23;20031;-76
2023/04/28 08:24:56;;;;;;;5.32;4.35;;;19.90;67.40;;;;;;6178090;23;20472;-75
2023/04/28 08:27:24;;;;;;;8.70;5.25;;;19.90;66.90;;;;;;6179446;23;20493;-74
2023/04/28 08:29:50;;;;;;;7.47;4.80;;;19.80;66.70;;;;;;6179308;23;20021;-75
2023/04/28 08:32:17;;;;;;;11.25;4.90;;;19.90;67.00;;;;;;6178516;23;20009;-75
2023/04/28 08:34:42;;;;;;;9.30;4.68;;;19.90;67.00;;;;;;6179100;23;20100;-75
2023/04/28 08:37:08;;;;;;;7.72;4.38;;;19.90;67.00;;;;;;6180469;23;20581;-74
2023/04/28 08:39:34;;;;;;;5.82;4.53;;;19.90;66.90;;;;;;6176769;23;20472;-75
2023/04/28 08:42:04;;;;;;;8.75;4.85;;;19.90;66.80;;;;;;6179405;23;20024;-76
2023/04/28 08:44:38;;;;;;;6.85;4.70;;;19.90;67.00;;;;;;6179247;23;20364;-75
2023/04/28 08:47:13;;;;;;;6.25;4.10;;;19.90;66.90;;;;;;6152981;23;20037;-75
2023/04/28 08:49:40;;;;;;;6.97;4.15;;;19.90;66.80;;;;;;6176002;23;20088;-75
2023/04/28 08:52:11;;;;;;;8.75;4.20;;;19.90;67.40;;;;;;6179351;23;20009;-75
2023/04/28 08:54:41;;;;;;;5.28;4.05;;;19.90;67.00;;;;;;6179128;23;20052;-74
2023/04/28 08:57:09;;;;;;;5.93;3.80;;;19.90;67.10;;;;;;6178780;23;20108;-75
2023/04/28 08:59:38;;;;;;;5.78;4.30;;;19.90;67.20;;;;;;6178695;23;20067;-75
2023/04/28 09:02:06;;;;;;;8.90;4.57;;;19.90;67.40;;;;;;6178470;23;20036;-75
2023/04/28 09:04:32;;;;;;;4.80;3.65;;;19.90;68.10;;;;;;6179036;23;20008;-75
2023/04/28 09:06:58;;;;;;;6.90;4.97;;;19.90;68.20;;;;;;6179120;23;20465;-76
2023/04/28 09:09:26;;;;;;;10.73;5.38;;;19.90;68.20;;;;;;6152747;23;20021;-75
2023/04/28 09:11:53;;;;;;;6.70;4.80;;;19.90;68.40;;;;;;6179430;23;20028;-76
2023/04/28 09:14:18;;;;;;;7.10;5.10;;;19.90;68.50;;;;;;6178626;23;20349;-75
2023/04/28 09:16:45;;;;;;;6.30;4.40;;;19.90;68.60;;;;;;6179217;23;20048;-76
2023/04/28 09:19:10;;;;;;;5.78;4.20;;;19.90;68.60;;;;;;6179355;23;20013;-75
2023/04/28 09:21:53;;;;;;;5.97;4.43;;;19.90;68.80;;;;;;6177252;23;20033;-74
2023/04/28 09:24:33;;;;;;;6.60;4.88;;;19.90;68.90;;;;;;6175808;23;20020;-75
2023/04/28 09:27:01;;;;;;;5.38;4.18;;;19.90;69.60;;;;;;6173114;23;20056;-75
2023/04/28 09:29:28;;;;;;;8.90;5.07;;;19.90;69.90;;;;;;6178490;23;20021;-75
2023/04/28 09:31:54;;;;;;;6.95;4.90;;;19.90;70.00;;;;;;6177184;23;20047;-75
2023/04/28 09:34:21;;;;;;;6.65;5.03;;;19.90;70.10;;;;;;6177953;23;20483;-74
2023/04/28 09:36:47;;;;;;;7.28;5.30;;;19.90;70.50;;;;;;6177489;23;20013;-75
2023/04/28 09:39:13;;;;;;;7.95;5.90;;;19.90;70.60;;;;;;6171626;23;20016;-75
2023/04/28 09:41:41;;;;;;;7.30;5.30;;;19.80;70.80;;;;;;6176480;23;20095;-76
2023/04/28 09:44:15;;;;;;;8.55;5.70;;;19.80;71.10;;;;;;6178119;23;20017;-75
2023/04/28 09:46:43;;;;;;;7.72;5.57;;;19.80;71.30;;;;;;6181926;23;20342;-74
2023/04/28 09:49:10;;;;;;;7.57;5.40;;;19.80;71.20;;;;;;6182052;23;20041;-74
2023/04/28 09:51:36;;;;;;;6.93;4.97;;;19.80;71.50;;;;;;6180797;23;20426;-74
2023/04/28 09:54:03;;;;;;;10.27;5.70;;;19.80;71.40;;;;;;6181247;23;20021;-75
2023/04/28 09:56:30;;;;;;;6.60;5.22;;;19.80;71.60;;;;;;6178822;23;20037;-76
2023/04/28 09:58:58;;;;;;;7.00;5.70;;;19.80;71.50;;;;;;6154310;23;20473;-76
2023/04/28 10:01:31;;;;;;;7.18;5.60;;;19.80;71.60;;;;;;6180398;23;20357;-75
2023/04/28 10:04:01;;;;;;;8.80;6.18;;;19.80;71.40;;;;;;6181650;23;20009;-75
2023/04/28 10:06:28;;;;;;;9.65;5.90;;;19.70;71.30;;;;;;6208298;23;20365;-76
2023/04/28 10:08:57;;;;;;;11.77;9.77;;;19.70;71.60;;;;;;6209784;23;20663;-76
2023/04/28 10:11:24;;;;;;;23.38;18.08;;;19.70;72.10;;;;;;6208495;23;20074;-75
2023/04/28 10:13:52;;;;;;;16.52;11.88;;;19.70;72.20;;;;;;6208226;23;20367;-75
2023/04/28 10:16:18;;;;;;;10.55;9.45;;;19.70;72.10;;;;;;6209186;23;20364;-82
2023/04/28 10:18:45;;;;;;;9.38;8.38;;;19.70;72.20;;;;;;6211081;23;20013;-80
2023/04/28 10:21:15;;;;;;;10.73;8.75;;;19.70;72.10;;;;;;6177740;23;20061;-80
2023/04/28 10:24:04;;;;;;;10.18;8.43;;;19.60;71.90;;;;;;6164981;23;20017;-80
2023/04/28 10:26:56;;;;;;;9.88;8.20;;;19.60;71.80;;;;;;6128953;23;20112;-82
2023/04/28 10:29:24;;;;;;;9.82;7.55;;;19.60;71.60;;;;;;6159978;23;20013;-79
2023/04/28 10:32:15;;;;;;;10.30;7.93;;;19.60;71.80;;;;;;6106081;23;20029;-79
2023/04/28 10:34:42;;;;;;;8.30;7.45;;;19.60;71.80;;;;;;6180430;23;20013;-81
2023/04/28 10:37:08;;;;;;;9.50;8.15;;;19.60;72.10;;;;;;6182981;23;20009;-84
2023/04/28 10:39:34;;;;;;;8.45;7.65;;;19.60;72.50;;;;;;6189222;23;20017;-83
2023/04/28 10:42:01;;;;;;;9.18;7.53;;;19.50;72.50;;;;;;6166945;23;20077;-82
2023/04/28 10:44:30;;;;;;;13.82;8.18;;;19.60;72.80;;;;;;6166094;23;20028;-81
2023/04/28 10:47:02;;;;;;;9.30;7.63;;;19.50;73.00;;;;;;6139684;23;20017;-81
2023/04/28 10:49:53;;;;;;;10.02;7.00;;;19.60;73.30;;;;;;6158289;23;20376;-79
2023/04/28 10:52:38;;;;;;;8.77;7.82;;;19.60;72.90;;;;;;6189335;23;20017;-81
2023/04/28 10:55:27;;;;;;;9.05;7.88;;;19.60;73.10;;;;;;6142710;23;20012;-79
2023/04/28 10:58:15;;;;;;;8.43;6.72;;;19.60;72.90;;;;;;6165181;23;20025;-81
2023/04/28 11:00:46;;;;;;;9.55;7.70;;;19.60;72.50;;;;;;6146841;23;20402;-84
2023/04/28 11:03:46;;;;;;;7.90;7.10;;;19.70;72.30;;;;;;6186252;23;20024;-84
2023/04/28 11:06:33;;;;;;;8.57;7.55;;;19.70;72.00;;;;;;6155728;23;20742;-84
2023/04/28 11:09:16;;;;;;;8.00;7.20;;;19.70;71.90;;;;;;6156361;23;20393;-83
2023/04/28 11:12:00;;;;;;;11.88;8.10;;;19.70;71.80;;;;;;6180180;23;20020;-83
2023/04/28 11:14:36;;;;;;;8.93;8.02;;;19.70;71.90;;;;;;6183769;23;20009;-84
2023/04/28 11:17:03;;;;;;;;;;;19.70;71.90;;;;;;6149501;23;20341;-83
2023/04/28 11:19:34;;;;;;;8.77;6.95;;;19.70;71.80;;;;;;6180454;23;19915;-81
2023/04/28 11:22:03;;;;;;;10.88;8.10;;;19.70;71.80;;;;;;6182329;23;20031;-85
2023/04/28 11:24:30;;;;;;;11.05;8.25;;;19.60;72.20;;;;;;6181070;23;20020;-82
2023/04/28 11:26:57;;;;;;;9.50;7.45;;;19.60;72.30;;;;;;6182377;23;20021;-83
2023/04/28 11:29:36;;;;;;;10.48;8.77;;;19.60;72.30;;;;;;6182757;23;20484;-81
2023/04/28 11:32:09;;;;;;;9.95;8.95;;;19.60;72.80;;;;;;6182763;23;20017;-84
2023/04/28 11:34:36;;;;;;;11.93;8.88;;;19.60;73.00;;;;;;6182797;23;20021;-83
2023/04/28 11:37:02;;;;;;;9.88;8.90;;;19.60;73.10;;;;;;6157082;23;20361;-85
2023/04/28 11:39:34;;;;;;;13.60;9.88;;;19.60;73.20;;;;;;6155677;23;20013;-81
2023/04/28 11:42:08;;;;;;;10.98;8.73;;;19.60;73.70;;;;;;6178622;23;20028;-82
2023/04/28 11:44:34;;;;;;;14.35;9.43;;;19.60;73.70;;;;;;6181036;23;20378;-81
2023/04/28 11:47:01;;;;;;;10.25;9.05;;;19.60;74.00;;;;;;6181709;23;20016;-81
2023/04/28 11:49:32;;;;;;;10.85;9.27;;;19.60;74.10;;;;;;6131290;23;20009;-87
2023/04/28 11:52:05;;;;;;;10.90;8.93;;;19.50;74.00;;;;;;6181636;23;20009;-82
2023/04/28 11:54:45;;;;;;;10.20;8.65;;;19.50;74.10;;;;;;6179669;23;20104;-81
2023/04/28 12:02:22;;;;;;;8.70;7.80;;;19.50;74.00;;;;;;5992180;23;20026;-81
2023/04/28 12:04:50;;;;;;;12.05;7.32;;;19.50;74.40;;;;;;6016133;23;20027;-88
2023/04/28 12:07:18;;;;;;;11.52;7.43;;;19.40;74.30;;;;;;6031775;23;20093;-84
2023/04/28 12:10:05;;;;;;;9.55;8.10;;;19.40;74.50;;;;;;5985549;23;20100;-84
2023/04/28 12:12:32;;;;;;;12.45;8.13;;;19.40;74.90;;;;;;5957355;23;20019;-82
2023/04/28 12:15:00;;;;;;;10.80;8.18;;;19.40;75.30;;;;;;5983655;23;20121;-84
2023/04/28 12:17:33;;;;;;;9.30;7.43;;;19.30;75.10;;;;;;6009766;23;20662;-87
2023/04/28 12:20:05;;;;;;;9.98;8.27;;;19.40;75.10;;;;;;5985610;23;20111;-87
2023/04/28 12:22:43;;;;;;;10.50;7.85;;;19.40;75.90;;;;;;5986034;23;20030;-80
2023/04/28 12:25:11;;;;;;;9.18;7.57;;;19.40;75.70;;;;;;5984404;23;20395;-79
2023/04/28 12:27:39;;;;;;;11.02;8.43;;;19.40;76.10;;;;;;6034245;23;20030;-78
2023/04/28 12:30:20;;;;;;;11.18;8.32;;;19.40;76.20;;;;;;6011478;23;20030;-80
2023/04/28 12:32:56;;;;;;;9.30;8.15;;;19.40;76.70;;;;;;6090629;23;20039;-79
2023/04/28 12:35:45;;;;;;;10.65;7.57;;;19.40;76.90;;;;;;6103588;23;20021;-81
2023/04/28 12:39:01;;;;;;;10.02;8.07;;;19.40;76.60;;;;;;6064242;23;20033;-78
2023/04/28 12:41:27;;;;;;;10.88;8.48;;;19.50;76.20;;;;;;6064713;23;20014;-79
2023/04/28 12:44:11;;;;;;;9.63;7.90;;;19.50;76.10;;;;;;6037571;23;20039;-79
2023/04/28 12:46:40;;;;;;;12.02;8.75;;;19.40;76.20;;;;;;6023440;23;20076;-80
2023/04/28 12:49:14;;;;;;;11.48;8.90;;;19.40;76.20;;;;;;6054671;23;20013;-77
2023/04/28 12:52:06;;;;;;;10.25;8.85;;;19.40;76.60;;;;;;6088923;23;20030;-86
2023/04/28 12:54:54;;;;;;;11.23;8.68;;;19.40;76.20;;;;;;6060519;23;20030;-82